sensor_id;sensor_type;location;lat;lon;timestamp;P1;durP1;ratioP1;P2;durP2;ratioP2
16133;SDS011;8172;45.018;5.972;2022-09-01T00:04:30;3.60;;;3.30;;
16133;SDS011;8172;45.018;5.972;2022-09-01T00:09:38;4.50;;;3.83;;
16133;SDS011;8172;45.018;5.972;2022-09-01T00:14:46;3.93;;;3.40;;
16133;SDS011;8172;45.018;5.972;2022-09-01T00:19:53;4.93;;;3.50;;
16133;SDS011;8172;45.018;5.972;2022-09-01T00:25:01;4.63;;;3.20;;
16133;SDS011;8172;45.018;5.972;2022-09-01T00:30:09;3.27;;;2.97;;
16133;SDS011;8172;45.018;5.972;2022-09-01T00:35:17;3.50;;;3.20;;
16133;SDS011;8172;45.018;5.972;2022-09-01T00:40:25;5.27;;;3.10;;
16133;SDS011;8172;45.018;5.972;2022-09-01T00:45:33;4.97;;;3.27;;
16133;SDS011;8172;45.018;5.972;2022-09-01T00:50:40;4.67;;;3.50;;
16133;SDS011;8172;45.018;5.972;2022-09-01T00:55:50;3.83;;;3.33;;
16133;SDS011;8172;45.018;5.972;2022-09-01T01:00:57;4.53;;;3.40;;
16133;SDS011;8172;45.018;5.972;2022-09-01T01:06:05;3.23;;;2.93;;
16133;SDS011;8172;45.018;5.972;2022-09-01T01:11:16;5.30;;;3.07;;
16133;SDS011;8172;45.018;5.972;2022-09-01T01:16:25;3.73;;;3.00;;
16133;SDS011;8172;45.018;5.972;2022-09-01T01:21:34;3.53;;;3.23;;
16133;SDS011;8172;45.018;5.972;2022-09-01T01:26:46;4.90;;;3.23;;
16133;SDS011;8172;45.018;5.972;2022-09-01T01:31:54;4.90;;;3.10;;
16133;SDS011;8172;45.018;5.972;2022-09-01T01:37:02;6.00;;;3.20;;
16133;SDS011;8172;45.018;5.972;2022-09-01T01:42:10;4.27;;;3.30;;
16133;SDS011;8172;45.018;5.972;2022-09-01T01:47:19;3.40;;;3.10;;
16133;SDS011;8172;45.018;5.972;2022-09-01T01:52:32;3.80;;;3.40;;
16133;SDS011;8172;45.018;5.972;2022-09-01T01:57:42;4.37;;;3.40;;
16133;SDS011;8172;45.018;5.972;2022-09-01T02:02:59;4.30;;;3.30;;
16133;SDS011;8172;45.018;5.972;2022-09-01T02:08:07;4.70;;;3.30;;
16133;SDS011;8172;45.018;5.972;2022-09-01T02:13:18;3.63;;;3.33;;
16133;SDS011;8172;45.018;5.972;2022-09-01T02:18:32;4.97;;;3.47;;
16133;SDS011;8172;45.018;5.972;2022-09-01T02:23:41;3.40;;;3.10;;
16133;SDS011;8172;45.018;5.972;2022-09-01T02:28:48;8.10;;;3.70;;
16133;SDS011;8172;45.018;5.972;2022-09-01T02:33:57;4.73;;;3.57;;
16133;SDS011;8172;45.018;5.972;2022-09-01T02:39:05;4.20;;;3.80;;
16133;SDS011;8172;45.018;5.972;2022-09-01T02:44:12;4.60;;;4.10;;
16133;SDS011;8172;45.018;5.972;2022-09-01T02:49:21;4.03;;;3.53;;
16133;SDS011;8172;45.018;5.972;2022-09-01T02:54:30;4.30;;;3.90;;
16133;SDS011;8172;45.018;5.972;2022-09-01T02:59:38;4.97;;;4.20;;
16133;SDS011;8172;45.018;5.972;2022-09-01T03:04:48;4.50;;;4.10;;
16133;SDS011;8172;45.018;5.972;2022-09-01T03:09:57;4.90;;;4.20;;
16133;SDS011;8172;45.018;5.972;2022-09-01T03:15:04;4.43;;;4.03;;
16133;SDS011;8172;45.018;5.972;2022-09-01T03:20:15;5.57;;;4.23;;
16133;SDS011;8172;45.018;5.972;2022-09-01T03:25:25;4.53;;;4.13;;
16133;SDS011;8172;45.018;5.972;2022-09-01T03:30:35;6.13;;;4.30;;
16133;SDS011;8172;45.018;5.972;2022-09-01T03:35:44;4.33;;;3.93;;
16133;SDS011;8172;45.018;5.972;2022-09-01T03:40:54;4.40;;;3.93;;
16133;SDS011;8172;45.018;5.972;2022-09-01T03:46:05;5.50;;;4.17;;
16133;SDS011;8172;45.018;5.972;2022-09-01T03:51:14;4.70;;;3.93;;
16133;SDS011;8172;45.018;5.972;2022-09-01T03:56:23;4.40;;;4.00;;
16133;SDS011;8172;45.018;5.972;2022-09-01T04:01:32;6.17;;;4.30;;
16133;SDS011;8172;45.018;5.972;2022-09-01T04:06:42;4.67;;;3.97;;
16133;SDS011;8172;45.018;5.972;2022-09-01T04:11:52;7.00;;;3.70;;
16133;SDS011;8172;45.018;5.972;2022-09-01T04:17:00;4.43;;;4.03;;
16133;SDS011;8172;45.018;5.972;2022-09-01T04:22:09;4.90;;;4.40;;
16133;SDS011;8172;45.018;5.972;2022-09-01T04:27:19;7.27;;;4.30;;
16133;SDS011;8172;45.018;5.972;2022-09-01T04:32:29;4.40;;;3.77;;
16133;SDS011;8172;45.018;5.972;2022-09-01T04:37:38;5.57;;;4.20;;
16133;SDS011;8172;45.018;5.972;2022-09-01T04:42:46;4.60;;;4.10;;
16133;SDS011;8172;45.018;5.972;2022-09-01T04:47:53;4.97;;;3.97;;
16133;SDS011;8172;45.018;5.972;2022-09-01T04:53:01;6.43;;;4.03;;
16133;SDS011;8172;45.018;5.972;2022-09-01T04:58:13;5.70;;;4.00;;
16133;SDS011;8172;45.018;5.972;2022-09-01T05:03:22;5.47;;;4.20;;
16133;SDS011;8172;45.018;5.972;2022-09-01T05:08:30;4.93;;;3.93;;
16133;SDS011;8172;45.018;5.972;2022-09-01T05:13:42;5.97;;;5.10;;
16133;SDS011;8172;45.018;5.972;2022-09-01T05:18:52;4.80;;;4.27;;
16133;SDS011;8172;45.018;5.972;2022-09-01T05:24:03;5.17;;;4.33;;
16133;SDS011;8172;45.018;5.972;2022-09-01T05:29:13;6.20;;;4.43;;
16133;SDS011;8172;45.018;5.972;2022-09-01T05:34:23;4.50;;;4.10;;
16133;SDS011;8172;45.018;5.972;2022-09-01T05:39:33;6.73;;;4.20;;
16133;SDS011;8172;45.018;5.972;2022-09-01T05:44:43;5.70;;;4.00;;
16133;SDS011;8172;45.018;5.972;2022-09-01T05:49:53;5.10;;;4.60;;
16133;SDS011;8172;45.018;5.972;2022-09-01T05:55:03;8.47;;;4.37;;
16133;SDS011;8172;45.018;5.972;2022-09-01T06:00:14;5.93;;;4.50;;
16133;SDS011;8172;45.018;5.972;2022-09-01T06:05:23;4.70;;;4.30;;
16133;SDS011;8172;45.018;5.972;2022-09-01T06:10:32;6.67;;;4.23;;
16133;SDS011;8172;45.018;5.972;2022-09-01T06:15:42;5.43;;;4.00;;
16133;SDS011;8172;45.018;5.972;2022-09-01T06:20:51;4.67;;;4.10;;
16133;SDS011;8172;45.018;5.972;2022-09-01T06:26:00;6.30;;;4.47;;
16133;SDS011;8172;45.018;5.972;2022-09-01T06:31:08;4.87;;;4.00;;
16133;SDS011;8172;45.018;5.972;2022-09-01T06:36:17;4.67;;;4.23;;
16133;SDS011;8172;45.018;5.972;2022-09-01T06:41:27;5.10;;;4.60;;
16133;SDS011;8172;45.018;5.972;2022-09-01T06:46:38;5.70;;;4.50;;
16133;SDS011;8172;45.018;5.972;2022-09-01T06:51:46;5.03;;;4.47;;
16133;SDS011;8172;45.018;5.972;2022-09-01T06:56:56;4.90;;;4.20;;
16133;SDS011;8172;45.018;5.972;2022-09-01T07:02:05;5.40;;;4.50;;
16133;SDS011;8172;45.018;5.972;2022-09-01T07:07:16;5.43;;;4.37;;
16133;SDS011;8172;45.018;5.972;2022-09-01T07:12:29;5.67;;;4.90;;
16133;SDS011;8172;45.018;5.972;2022-09-01T07:17:38;5.23;;;4.60;;
16133;SDS011;8172;45.018;5.972;2022-09-01T07:22:48;4.83;;;4.10;;
16133;SDS011;8172;45.018;5.972;2022-09-01T07:27:59;4.03;;;3.63;;
16133;SDS011;8172;45.018;5.972;2022-09-01T07:33:08;4.20;;;3.80;;
16133;SDS011;8172;45.018;5.972;2022-09-01T07:38:21;4.40;;;3.90;;
16133;SDS011;8172;45.018;5.972;2022-09-01T07:43:32;4.93;;;3.80;;
16133;SDS011;8172;45.018;5.972;2022-09-01T07:48:42;4.00;;;3.60;;
16133;SDS011;8172;45.018;5.972;2022-09-01T07:53:53;4.03;;;3.60;;
16133;SDS011;8172;45.018;5.972;2022-09-01T07:59:03;3.70;;;3.30;;
16133;SDS011;8172;45.018;5.972;2022-09-01T08:04:12;3.67;;;3.13;;
16133;SDS011;8172;45.018;5.972;2022-09-01T08:09:23;3.67;;;3.00;;
16133;SDS011;8172;45.018;5.972;2022-09-01T08:14:35;4.80;;;3.30;;
16133;SDS011;8172;45.018;5.972;2022-09-01T08:19:43;3.50;;;3.20;;
16133;SDS011;8172;45.018;5.972;2022-09-01T08:24:53;4.47;;;3.27;;
16133;SDS011;8172;45.018;5.972;2022-09-01T08:30:03;5.83;;;3.80;;
16133;SDS011;8172;45.018;5.972;2022-09-01T08:35:13;4.70;;;4.27;;
16133;SDS011;8172;45.018;5.972;2022-09-01T08:40:25;5.20;;;4.00;;
16133;SDS011;8172;45.018;5.972;2022-09-01T08:50:47;4.10;;;3.33;;
16133;SDS011;8172;45.018;5.972;2022-09-01T08:55:58;4.00;;;3.20;;
16133;SDS011;8172;45.018;5.972;2022-09-01T09:01:10;4.87;;;3.53;;
16133;SDS011;8172;45.018;5.972;2022-09-01T09:06:23;4.50;;;3.20;;
16133;SDS011;8172;45.018;5.972;2022-09-01T09:16:45;5.20;;;4.70;;
16133;SDS011;8172;45.018;5.972;2022-09-01T09:21:57;5.23;;;4.50;;
16133;SDS011;8172;45.018;5.972;2022-09-01T09:27:07;4.97;;;4.47;;
16133;SDS011;8172;45.018;5.972;2022-09-01T09:32:18;4.73;;;4.33;;
16133;SDS011;8172;45.018;5.972;2022-09-01T09:37:29;5.50;;;4.67;;
16133;SDS011;8172;45.018;5.972;2022-09-01T09:47:50;5.60;;;5.00;;
16133;SDS011;8172;45.018;5.972;2022-09-01T09:58:16;5.47;;;4.70;;
16133;SDS011;8172;45.018;5.972;2022-09-01T10:03:34;7.03;;;4.30;;
16133;SDS011;8172;45.018;5.972;2022-09-01T10:08:50;5.67;;;3.97;;
16133;SDS011;8172;45.018;5.972;2022-09-01T10:14:04;4.83;;;3.93;;
16133;SDS011;8172;45.018;5.972;2022-09-01T10:19:22;4.90;;;4.10;;
16133;SDS011;8172;45.018;5.972;2022-09-01T10:24:58;3.77;;;3.47;;
16133;SDS011;8172;45.018;5.972;2022-09-01T10:30:15;3.70;;;3.30;;
16133;SDS011;8172;45.018;5.972;2022-09-01T10:35:26;3.60;;;3.30;;
16133;SDS011;8172;45.018;5.972;2022-09-01T10:40:36;3.20;;;2.90;;
16133;SDS011;8172;45.018;5.972;2022-09-01T10:45:47;3.50;;;2.80;;
16133;SDS011;8172;45.018;5.972;2022-09-01T11:17:12;4.87;;;4.37;;
16133;SDS011;8172;45.018;5.972;2022-09-01T11:32:42;4.40;;;3.90;;
16133;SDS011;8172;45.018;5.972;2022-09-01T11:37:57;4.47;;;3.70;;
16133;SDS011;8172;45.018;5.972;2022-09-01T11:43:10;4.23;;;3.67;;
16133;SDS011;8172;45.018;5.972;2022-09-01T11:48:29;4.57;;;3.70;;
16133;SDS011;8172;45.018;5.972;2022-09-01T11:53:48;3.40;;;3.10;;
16133;SDS011;8172;45.018;5.972;2022-09-01T11:59:07;3.70;;;3.40;;
16133;SDS011;8172;45.018;5.972;2022-09-01T12:04:32;4.07;;;3.03;;
16133;SDS011;8172;45.018;5.972;2022-09-01T12:09:48;3.50;;;3.20;;
16133;SDS011;8172;45.018;5.972;2022-09-01T12:15:08;4.23;;;3.80;;
16133;SDS011;8172;45.018;5.972;2022-09-01T12:25:35;3.90;;;3.50;;
16133;SDS011;8172;45.018;5.972;2022-09-01T12:30:50;4.13;;;3.43;;
16133;SDS011;8172;45.018;5.972;2022-09-01T12:41:33;3.80;;;3.50;;
16133;SDS011;8172;45.018;5.972;2022-09-01T12:46:42;3.60;;;3.30;;
16133;SDS011;8172;45.018;5.972;2022-09-01T12:57:09;3.80;;;2.83;;
16133;SDS011;8172;45.018;5.972;2022-09-01T13:02:26;3.20;;;2.90;;
16133;SDS011;8172;45.018;5.972;2022-09-01T13:07:38;3.93;;;3.07;;
16133;SDS011;8172;45.018;5.972;2022-09-01T13:12:54;3.07;;;2.77;;
16133;SDS011;8172;45.018;5.972;2022-09-01T13:18:06;2.70;;;2.50;;
16133;SDS011;8172;45.018;5.972;2022-09-01T13:23:23;2.60;;;2.40;;
16133;SDS011;8172;45.018;5.972;2022-09-01T13:28:32;2.80;;;2.50;;
16133;SDS011;8172;45.018;5.972;2022-09-01T13:33:54;2.57;;;2.37;;
16133;SDS011;8172;45.018;5.972;2022-09-01T13:39:14;2.70;;;2.50;;
16133;SDS011;8172;45.018;5.972;2022-09-01T13:44:31;2.53;;;2.13;;
16133;SDS011;8172;45.018;5.972;2022-09-01T13:49:44;2.30;;;2.10;;
16133;SDS011;8172;45.018;5.972;2022-09-01T13:54:53;3.30;;;2.80;;
16133;SDS011;8172;45.018;5.972;2022-09-01T14:00:03;2.40;;;2.20;;
16133;SDS011;8172;45.018;5.972;2022-09-01T14:05:16;2.30;;;2.10;;
16133;SDS011;8172;45.018;5.972;2022-09-01T14:10:27;1.70;;;1.60;;
16133;SDS011;8172;45.018;5.972;2022-09-01T14:15:44;2.20;;;2.00;;
16133;SDS011;8172;45.018;5.972;2022-09-01T14:20:54;2.03;;;1.87;;
16133;SDS011;8172;45.018;5.972;2022-09-01T14:26:07;2.20;;;2.00;;
16133;SDS011;8172;45.018;5.972;2022-09-01T14:31:17;1.90;;;1.70;;
16133;SDS011;8172;45.018;5.972;2022-09-01T14:36:27;1.90;;;1.60;;
16133;SDS011;8172;45.018;5.972;2022-09-01T14:41:36;2.10;;;1.50;;
16133;SDS011;8172;45.018;5.972;2022-09-01T14:47:03;2.60;;;1.70;;
16133;SDS011;8172;45.018;5.972;2022-09-01T14:52:16;1.73;;;1.63;;
16133;SDS011;8172;45.018;5.972;2022-09-01T14:57:26;2.57;;;1.50;;
16133;SDS011;8172;45.018;5.972;2022-09-01T15:02:36;1.90;;;1.70;;
16133;SDS011;8172;45.018;5.972;2022-09-01T15:07:48;2.30;;;2.00;;
16133;SDS011;8172;45.018;5.972;2022-09-01T15:12:59;2.10;;;1.90;;
16133;SDS011;8172;45.018;5.972;2022-09-01T15:18:25;1.90;;;1.80;;
16133;SDS011;8172;45.018;5.972;2022-09-01T15:23:37;2.17;;;1.97;;
16133;SDS011;8172;45.018;5.972;2022-09-01T15:28:47;3.10;;;2.10;;
16133;SDS011;8172;45.018;5.972;2022-09-01T15:34:01;2.10;;;1.90;;
16133;SDS011;8172;45.018;5.972;2022-09-01T15:39:20;2.20;;;1.90;;
16133;SDS011;8172;45.018;5.972;2022-09-01T15:44:37;3.50;;;2.40;;
16133;SDS011;8172;45.018;5.972;2022-09-01T15:49:44;2.70;;;2.50;;
16133;SDS011;8172;45.018;5.972;2022-09-01T15:54:53;2.83;;;2.27;;
16133;SDS011;8172;45.018;5.972;2022-09-01T16:00:05;2.43;;;2.20;;
16133;SDS011;8172;45.018;5.972;2022-09-01T16:05:16;2.70;;;2.50;;
16133;SDS011;8172;45.018;5.972;2022-09-01T16:10:24;4.27;;;2.50;;
16133;SDS011;8172;45.018;5.972;2022-09-01T16:15:36;2.60;;;2.37;;
16133;SDS011;8172;45.018;5.972;2022-09-01T16:25:57;2.60;;;2.40;;
16133;SDS011;8172;45.018;5.972;2022-09-01T17:12:57;3.17;;;2.53;;
16133;SDS011;8172;45.018;5.972;2022-09-01T17:23:36;3.10;;;2.80;;
16133;SDS011;8172;45.018;5.972;2022-09-01T17:28:48;4.20;;;2.60;;
16133;SDS011;8172;45.018;5.972;2022-09-01T18:05:09;4.53;;;2.70;;
16133;SDS011;8172;45.018;5.972;2022-09-01T18:10:23;3.40;;;2.70;;
16133;SDS011;8172;45.018;5.972;2022-09-01T18:15:48;4.37;;;2.90;;
16133;SDS011;8172;45.018;5.972;2022-09-01T18:20:44;3.33;;;2.97;;
16133;SDS011;8172;45.018;5.972;2022-09-01T18:36:19;3.37;;;3.07;;
16133;SDS011;8172;45.018;5.972;2022-09-01T18:46:39;3.40;;;3.10;;
16133;SDS011;8172;45.018;5.972;2022-09-01T18:57:04;3.93;;;2.80;;
16133;SDS011;8172;45.018;5.972;2022-09-01T19:07:34;3.00;;;2.70;;
16133;SDS011;8172;45.018;5.972;2022-09-01T19:12:49;4.57;;;2.80;;
16133;SDS011;8172;45.018;5.972;2022-09-01T19:28:13;3.10;;;2.80;;
16133;SDS011;8172;45.018;5.972;2022-09-01T19:33:18;3.17;;;2.87;;
16133;SDS011;8172;45.018;5.972;2022-09-01T19:38:28;3.83;;;2.87;;
16133;SDS011;8172;45.018;5.972;2022-09-01T19:43:37;3.10;;;2.80;;
16133;SDS011;8172;45.018;5.972;2022-09-01T19:53:57;4.67;;;3.20;;
16133;SDS011;8172;45.018;5.972;2022-09-01T20:19:51;3.53;;;3.13;;
16133;SDS011;8172;45.018;5.972;2022-09-01T20:25:00;3.80;;;2.97;;
16133;SDS011;8172;45.018;5.972;2022-09-01T20:30:14;3.43;;;2.50;;
16133;SDS011;8172;45.018;5.972;2022-09-01T20:35:27;3.13;;;2.70;;
16133;SDS011;8172;45.018;5.972;2022-09-01T20:40:34;3.70;;;2.97;;
16133;SDS011;8172;45.018;5.972;2022-09-01T20:45:44;4.93;;;2.80;;
16133;SDS011;8172;45.018;5.972;2022-09-01T20:50:55;3.13;;;2.83;;
16133;SDS011;8172;45.018;5.972;2022-09-01T21:01:15;3.43;;;2.40;;
16133;SDS011;8172;45.018;5.972;2022-09-01T21:22:00;3.77;;;2.93;;
16133;SDS011;8172;45.018;5.972;2022-09-01T21:27:06;3.70;;;3.00;;
16133;SDS011;8172;45.018;5.972;2022-09-01T21:32:15;3.80;;;3.40;;
16133;SDS011;8172;45.018;5.972;2022-09-01T21:37:24;3.40;;;3.10;;
16133;SDS011;8172;45.018;5.972;2022-09-01T21:42:35;3.20;;;2.90;;
16133;SDS011;8172;45.018;5.972;2022-09-01T21:47:44;3.40;;;3.10;;
16133;SDS011;8172;45.018;5.972;2022-09-01T21:52:53;4.27;;;3.03;;
16133;SDS011;8172;45.018;5.972;2022-09-01T21:58:01;3.30;;;2.80;;
16133;SDS011;8172;45.018;5.972;2022-09-01T22:03:10;3.23;;;2.93;;
16133;SDS011;8172;45.018;5.972;2022-09-01T22:08:19;7.77;;;3.27;;
16133;SDS011;8172;45.018;5.972;2022-09-01T22:13:28;3.30;;;3.00;;
16133;SDS011;8172;45.018;5.972;2022-09-01T22:18:37;5.30;;;2.97;;
16133;SDS011;8172;45.018;5.972;2022-09-01T22:23:44;3.30;;;3.00;;
16133;SDS011;8172;45.018;5.972;2022-09-01T22:28:53;4.20;;;2.73;;
16133;SDS011;8172;45.018;5.972;2022-09-01T22:34:03;3.40;;;3.10;;
16133;SDS011;8172;45.018;5.972;2022-09-01T22:39:11;3.20;;;2.90;;
16133;SDS011;8172;45.018;5.972;2022-09-01T22:44:20;3.50;;;3.20;;
16133;SDS011;8172;45.018;5.972;2022-09-01T22:49:29;4.37;;;3.83;;
16133;SDS011;8172;45.018;5.972;2022-09-01T22:54:37;4.40;;;3.27;;
16133;SDS011;8172;45.018;5.972;2022-09-01T22:59:44;4.17;;;3.00;;
16133;SDS011;8172;45.018;5.972;2022-09-01T23:04:53;5.03;;;3.27;;
16133;SDS011;8172;45.018;5.972;2022-09-01T23:10:01;3.70;;;3.00;;
16133;SDS011;8172;45.018;5.972;2022-09-01T23:15:11;3.63;;;3.07;;
16133;SDS011;8172;45.018;5.972;2022-09-01T23:20:19;3.40;;;3.07;;
16133;SDS011;8172;45.018;5.972;2022-09-01T23:25:26;3.53;;;3.00;;
16133;SDS011;8172;45.018;5.972;2022-09-01T23:30:35;3.43;;;3.03;;
16133;SDS011;8172;45.018;5.972;2022-09-01T23:35:44;3.53;;;3.23;;
16133;SDS011;8172;45.018;5.972;2022-09-01T23:40:54;4.07;;;2.90;;
16133;SDS011;8172;45.018;5.972;2022-09-01T23:46:02;4.47;;;2.90;;
16133;SDS011;8172;45.018;5.972;2022-09-01T23:51:11;3.33;;;2.97;;
16133;SDS011;8172;45.018;5.972;2022-09-01T23:56:20;3.80;;;3.23;;
